TimeEST,TemperatureF,Dew PointF,Humidity,Sea Level PressureIn,VisibilityMPH,Wind Direction,Wind SpeedMPH,Gust SpeedMPH,PrecipitationIn,Events,Conditions,WindDirDegrees,DateUTC
12:53 AM,16.0,12.0,84,30.12,10.0,WSW,4.6,-,N/A,,Clear,250,2013-02-16 05:53:00
1:53 AM,19.0,12.9,77,30.12,10.0,WNW,4.6,-,N/A,,Clear,290,2013-02-16 06:53:00
2:53 AM,16.0,10.9,81,30.11,10.0,West,3.5,-,N/A,,Scattered Clouds,260,2013-02-16 07:53:00
3:53 AM,12.9,10.9,92,30.09,10.0,Calm,Calm,-,N/A,,Mostly Cloudy,0,2013-02-16 08:53:00
4:53 AM,16.0,12.0,84,30.08,10.0,Calm,Calm,-,N/A,,Overcast,0,2013-02-16 09:53:00
5:53 AM,19.0,15.1,85,30.08,10.0,Calm,Calm,-,N/A,,Overcast,0,2013-02-16 10:53:00
7:53 AM,19.0,17.1,92,30.06,3.0,Calm,Calm,-,0.00,Snow,Light Snow,0,2013-02-16 12:53:00
8:25 AM,19.4,17.6,93,30.02,3.0,Calm,Calm,-,0.00,,Overcast,0,2013-02-16 13:25:00
8:53 AM,21.0,18.0,88,30.06,3.0,Calm,Calm,-,0.00,,Overcast,0,2013-02-16 13:53:00
9:10 AM,21.2,17.6,86,30.02,2.0,Calm,Calm,-,0.00,Snow,Light Snow,0,2013-02-16 14:10:00
9:33 AM,21.2,17.6,86,30.02,3.0,Calm,Calm,-,0.00,Snow,Light Snow,0,2013-02-16 14:33:00
9:38 AM,21.2,17.6,86,30.02,2.5,Calm,Calm,-,0.00,Snow,Light Snow,0,2013-02-16 14:38:00
9:51 AM,21.2,17.6,86,30.02,1.5,WNW,3.5,-,0.00,Snow,Light Snow,300,2013-02-16 14:51:00
9:53 AM,21.9,18.0,85,30.06,1.2,Calm,Calm,-,0.00,Snow,Light Snow,0,2013-02-16 14:53:00
10:01 AM,21.2,17.6,86,30.02,1.0,NNW,5.8,-,0.00,Snow,Light Snow,340,2013-02-16 15:01:00
10:11 AM,21.2,17.6,86,30.01,1.5,North,4.6,-,0.00,Snow,Light Snow,360,2013-02-16 15:11:00
10:19 AM,21.2,17.6,86,30.01,2.5,NNW,5.8,-,0.00,Snow,Light Snow,330,2013-02-16 15:19:00
10:53 AM,23.0,17.1,78,30.05,2.5,North,5.8,-,0.00,Snow,Light Snow,360,2013-02-16 15:53:00
11:04 AM,24.8,17.6,74,30.01,5.0,North,6.9,-,0.00,Snow,Light Snow,360,2013-02-16 16:04:00
11:25 AM,23.0,17.6,80,30.01,1.8,NNW,5.8,-,0.00,Snow,Light Snow,330,2013-02-16 16:25:00
11:53 AM,23.0,17.1,78,30.05,3.0,WNW,4.6,-,0.00,Snow,Light Snow,300,2013-02-16 16:53:00
12:06 PM,24.8,15.8,69,30.00,9.0,WNW,4.6,-,0.00,,Overcast,290,2013-02-16 17:06:00
12:53 PM,24.1,17.1,75,30.03,3.0,West,6.9,-,0.00,Snow,Light Snow,280,2013-02-16 17:53:00
1:03 PM,24.8,17.6,74,29.98,3.0,West,6.9,-,0.00,Snow,Light Snow,260,2013-02-16 18:03:00
1:17 PM,24.8,15.8,69,29.98,3.0,WNW,10.4,-,0.00,,Haze,290,2013-02-16 18:17:00
1:42 PM,23.0,17.6,80,29.97,3.0,WNW,8.1,-,0.00,Snow,Light Snow,300,2013-02-16 18:42:00
1:53 PM,23.0,17.1,78,30.01,7.0,WNW,10.4,-,0.00,,Overcast,290,2013-02-16 18:53:00
1:58 PM,23.0,17.6,80,29.97,1.8,WNW,10.4,-,0.00,Snow,Light Snow,290,2013-02-16 18:58:00
2:02 PM,23.0,19.4,86,29.97,0.8,NW,8.1,-,0.00,Snow,Light Snow,310,2013-02-16 19:02:00
2:08 PM,24.8,19.4,80,29.97,1.0,NW,5.8,-,0.00,Snow,Light Snow,320,2013-02-16 19:08:00
2:11 PM,24.8,19.4,80,29.97,2.0,NW,6.9,-,0.00,Snow,Light Snow,320,2013-02-16 19:11:00
2:18 PM,26.6,17.6,69,29.96,9.0,WNW,8.1,-,0.00,,Overcast,300,2013-02-16 19:18:00
2:53 PM,25.0,15.1,66,30.00,10.0,WNW,12.7,17.3,0.00,,Mostly Cloudy,290,2013-02-16 19:53:00
3:53 PM,25.0,10.9,55,30.01,10.0,WNW,11.5,-,N/A,,Mostly Cloudy,300,2013-02-16 20:53:00
4:53 PM,24.1,7.0,48,30.03,10.0,WNW,13.8,20.7,N/A,,Mostly Cloudy,300,2013-02-16 21:53:00
5:53 PM,21.0,8.1,57,30.05,10.0,WNW,19.6,-,0.00,,Overcast,300,2013-02-16 22:53:00
6:01 PM,19.4,12.2,74,30.01,1.5,WNW,17.3,21.9,0.00,Snow,Light Snow,290,2013-02-16 23:01:00
6:04 PM,19.4,14.0,80,30.01,0.8,WNW,12.7,21.9,0.00,Snow,Light Snow,290,2013-02-16 23:04:00
6:13 PM,19.4,15.8,86,30.01,0.8,NW,5.8,-,0.00,Snow,Light Snow,320,2013-02-16 23:13:00
6:17 PM,19.4,15.8,86,30.01,1.8,NNW,5.8,-,0.00,Snow,Light Snow,340,2013-02-16 23:17:00
6:19 PM,19.4,15.8,86,30.01,3.0,NNW,4.6,-,0.00,Snow,Light Snow,340,2013-02-16 23:19:00
6:53 PM,19.0,10.0,68,30.07,10.0,WNW,8.1,-,0.00,,Scattered Clouds,300,2013-02-16 23:53:00
7:25 PM,17.6,10.4,73,30.03,10.0,WNW,6.9,-,N/A,,Mostly Cloudy,300,2013-02-17 00:25:00
7:32 PM,17.6,10.4,73,30.03,10.0,WNW,6.9,-,N/A,,Mostly Cloudy,300,2013-02-17 00:32:00
7:53 PM,17.1,10.9,77,30.08,10.0,WNW,5.8,-,N/A,,Scattered Clouds,290,2013-02-17 00:53:00
8:53 PM,16.0,10.9,81,30.08,10.0,WNW,5.8,-,N/A,,Partly Cloudy,290,2013-02-17 01:53:00
9:53 PM,15.1,10.9,84,30.08,10.0,WNW,6.9,-,N/A,,Clear,290,2013-02-17 02:53:00
10:53 PM,15.1,10.9,84,30.09,10.0,WNW,6.9,-,N/A,,Mostly Cloudy,300,2013-02-17 03:53:00
11:53 PM,15.1,12.0,88,30.08,10.0,WNW,6.9,-,0.00,,Partly Cloudy,300,2013-02-17 04:53:00